createdAt,value
2023-07-10T00:00:25.777Z,27.38
2023-07-10T00:02:53.413Z,27.22
2023-07-10T00:05:22.444Z,27.00
2023-07-10T00:07:49.294Z,26.91
2023-07-10T00:10:17.922Z,26.91
2023-07-10T00:12:45.923Z,26.86
2023-07-10T00:15:13.896Z,26.89
2023-07-10T00:17:40.682Z,26.85
2023-07-10T00:20:16.933Z,26.83
2023-07-10T00:22:43.875Z,26.88
2023-07-10T00:25:12.148Z,26.83
2023-07-10T00:27:38.949Z,26.88
2023-07-10T00:30:19.851Z,26.80
2023-07-10T00:32:48.272Z,26.69
2023-07-10T00:35:18.317Z,26.60
2023-07-10T00:38:02.079Z,26.50
2023-07-10T00:40:31.623Z,26.57
2023-07-10T00:43:03.283Z,26.52
2023-07-10T00:45:30.034Z,26.55
2023-07-10T00:48:08.389Z,26.66
2023-07-10T00:50:40.310Z,26.71
2023-07-10T00:53:14.961Z,26.68
2023-07-10T00:55:42.760Z,26.66
2023-07-10T00:58:31.261Z,26.61
2023-07-10T01:01:11.654Z,26.64
2023-07-10T01:03:40.339Z,26.65
2023-07-10T01:06:24.007Z,26.57
2023-07-10T01:08:58.552Z,26.58
2023-07-10T01:11:25.343Z,26.53
2023-07-10T01:13:54.895Z,26.47
2023-07-10T01:16:23.242Z,26.34
2023-07-10T01:18:50.679Z,26.32
2023-07-10T01:21:25.174Z,26.21
2023-07-10T01:23:52.234Z,26.12
2023-07-10T01:26:19.009Z,25.92
2023-07-10T01:28:46.433Z,25.93
2023-07-10T01:31:17.176Z,25.96
2023-07-10T01:33:49.738Z,25.95
2023-07-10T01:36:20.831Z,25.98
2023-07-10T01:39:03.143Z,25.86
2023-07-10T01:41:41.133Z,25.77
2023-07-10T01:44:25.989Z,25.89
2023-07-10T01:46:53.971Z,25.92
2023-07-10T01:49:24.926Z,25.94
2023-07-10T01:51:53.369Z,25.83
2023-07-10T01:54:20.193Z,25.90
2023-07-10T01:56:47.576Z,25.94
2023-07-10T01:59:15.033Z,25.92
2023-07-10T02:01:42.771Z,25.97
2023-07-10T02:04:10.234Z,25.91
2023-07-10T02:06:38.363Z,25.95
2023-07-10T02:09:05.470Z,25.99
2023-07-10T02:11:35.750Z,26.00
2023-07-10T02:14:07.587Z,25.98
2023-07-10T02:16:35.319Z,26.02
2023-07-10T02:19:02.280Z,25.97
2023-07-10T02:21:28.939Z,26.05
2023-07-10T02:23:55.606Z,26.08
2023-07-10T02:26:24.498Z,26.08
2023-07-10T02:28:51.398Z,26.04
2023-07-10T02:31:18.231Z,25.91
2023-07-10T02:33:45.037Z,25.91
2023-07-10T02:36:13.773Z,25.88
2023-07-10T02:38:40.547Z,25.81
2023-07-10T02:41:07.398Z,25.82
2023-07-10T02:43:34.426Z,25.84
2023-07-10T02:46:02.606Z,25.83
2023-07-10T02:48:29.623Z,25.79
2023-07-10T02:50:56.303Z,25.83
2023-07-10T02:53:23.517Z,25.91
2023-07-10T02:55:50.258Z,25.87
2023-07-10T02:58:17.166Z,25.88
2023-07-10T03:00:43.933Z,25.87
2023-07-10T03:03:10.855Z,25.87
2023-07-10T03:05:37.512Z,25.87
2023-07-10T03:08:04.459Z,25.87
2023-07-10T03:10:31.151Z,25.85
2023-07-10T03:12:58.288Z,25.86
2023-07-10T03:15:24.965Z,25.73
2023-07-10T03:17:51.697Z,25.72
2023-07-10T03:20:18.566Z,25.68
2023-07-10T03:22:45.222Z,25.66
2023-07-10T03:25:11.905Z,25.71
2023-07-10T03:27:38.565Z,25.77
2023-07-10T03:30:06.103Z,25.81
2023-07-10T03:32:32.769Z,25.80
2023-07-10T03:34:59.547Z,25.77
2023-07-10T03:37:26.777Z,25.80
2023-07-10T03:39:56.473Z,25.72
2023-07-10T03:42:23.293Z,25.72
2023-07-10T03:44:49.900Z,25.78
2023-07-10T03:47:16.610Z,25.77
2023-07-10T03:49:43.283Z,25.71
2023-07-10T03:52:10.211Z,25.72
2023-07-10T03:54:37.349Z,25.57
2023-07-10T03:57:04.229Z,25.61
2023-07-10T03:59:30.864Z,25.44
2023-07-10T04:01:57.523Z,25.41
2023-07-10T04:04:24.282Z,25.42
2023-07-10T04:06:52.557Z,25.40
2023-07-10T04:09:19.471Z,25.39
2023-07-10T04:11:46.124Z,25.27
2023-07-10T04:14:12.935Z,25.20
2023-07-10T04:16:40.099Z,25.36
2023-07-10T04:19:06.842Z,25.39
2023-07-10T04:21:33.516Z,25.40
2023-07-10T04:24:00.558Z,25.41
2023-07-10T04:26:33.222Z,25.39
2023-07-10T04:29:02.979Z,25.37
2023-07-10T04:31:29.761Z,25.41
2023-07-10T04:33:57.825Z,25.45
2023-07-10T04:36:24.998Z,25.53
2023-07-10T04:38:51.747Z,25.61
2023-07-10T04:41:22.212Z,25.69
2023-07-10T04:43:49.420Z,25.75
2023-07-10T04:46:19.050Z,25.89
2023-07-10T04:48:47.232Z,25.85
2023-07-10T04:51:15.851Z,25.88
2023-07-10T04:53:42.668Z,25.99
2023-07-10T04:56:13.007Z,25.98
2023-07-10T04:58:47.083Z,25.99
2023-07-10T05:01:13.825Z,26.01
2023-07-10T05:03:40.664Z,26.03
2023-07-10T05:06:07.517Z,26.16
2023-07-10T05:08:34.210Z,26.42
2023-07-10T05:11:02.102Z,26.51
2023-07-10T05:13:29.934Z,26.69
2023-07-10T05:15:58.371Z,26.83
2023-07-10T05:18:28.875Z,26.94
2023-07-10T05:20:55.830Z,26.98
2023-07-10T05:23:22.602Z,27.16
2023-07-10T05:26:06.040Z,27.23
2023-07-10T05:28:33.534Z,27.48
2023-07-10T05:31:03.119Z,27.59
2023-07-10T05:33:31.183Z,27.63
2023-07-10T05:36:01.048Z,27.62
2023-07-10T05:38:30.470Z,27.55
2023-07-10T05:40:57.819Z,27.49
2023-07-10T05:43:24.540Z,27.45
2023-07-10T05:45:54.082Z,27.47
2023-07-10T05:48:21.433Z,27.33
2023-07-10T05:50:49.478Z,27.39
2023-07-10T05:53:17.429Z,27.27
2023-07-10T05:55:45.607Z,27.22
2023-07-10T05:58:13.108Z,27.31
2023-07-10T06:00:42.630Z,27.25
2023-07-10T06:03:10.981Z,27.35
2023-07-10T06:05:38.051Z,27.43
2023-07-10T06:08:05.008Z,27.53
2023-07-10T06:10:33.810Z,27.57
2023-07-10T06:13:00.664Z,27.62
2023-07-10T06:15:27.445Z,27.72
2023-07-10T06:17:54.593Z,27.73
2023-07-10T06:20:21.235Z,27.71
2023-07-10T06:22:47.938Z,27.74
2023-07-10T06:25:14.745Z,27.67
2023-07-10T06:27:41.393Z,27.76
2023-07-10T06:30:08.582Z,27.74
2023-07-10T06:32:37.145Z,27.80
2023-07-10T06:35:04.899Z,27.75
2023-07-10T06:37:31.737Z,27.83
2023-07-10T06:40:13.681Z,28.00
2023-07-10T06:42:41.819Z,28.40
2023-07-10T06:45:12.461Z,28.70
2023-07-10T06:47:42.230Z,28.79
2023-07-10T06:50:10.847Z,29.18
2023-07-10T06:52:43.032Z,29.41
2023-07-10T06:55:12.862Z,29.61
2023-07-10T06:57:39.709Z,29.92
2023-07-10T07:00:09.696Z,30.36
2023-07-10T07:02:37.500Z,30.69
2023-07-10T07:05:06.694Z,30.85
2023-07-10T07:07:34.010Z,31.19
2023-07-10T07:10:00.683Z,31.48
2023-07-10T07:12:27.958Z,31.76
2023-07-10T07:14:54.768Z,31.99
2023-07-10T07:17:21.501Z,32.27
2023-07-10T07:19:48.244Z,32.08
2023-07-10T07:22:15.536Z,32.08
2023-07-10T07:24:42.866Z,32.36
2023-07-10T07:27:09.997Z,32.26
2023-07-10T07:29:36.781Z,32.30
2023-07-10T07:32:04.438Z,32.11
2023-07-10T07:34:31.294Z,31.92
2023-07-10T07:36:57.962Z,31.52
2023-07-10T07:39:29.247Z,31.41
2023-07-10T07:41:55.988Z,31.21
2023-07-10T07:44:22.798Z,30.97
2023-07-10T07:46:49.460Z,30.87
2023-07-10T07:49:16.175Z,30.76
2023-07-10T07:51:44.798Z,31.30
2023-07-10T07:54:14.370Z,31.51
2023-07-10T07:56:41.268Z,31.83
2023-07-10T07:59:08.063Z,31.90
2023-07-10T08:01:34.823Z,31.83
2023-07-10T08:04:01.659Z,31.64
2023-07-10T08:06:30.555Z,31.75
2023-07-10T08:08:57.414Z,31.93
2023-07-10T08:11:24.517Z,31.60
2023-07-10T08:13:51.772Z,31.54
2023-07-10T08:16:20.069Z,31.70
2023-07-10T08:18:46.907Z,32.10
2023-07-10T08:21:15.443Z,32.05
2023-07-10T08:23:42.354Z,32.23
2023-07-10T08:26:09.196Z,32.63
2023-07-10T08:28:36.188Z,32.28
2023-07-10T08:31:03.888Z,32.75
2023-07-10T08:33:30.665Z,33.02
2023-07-10T08:35:59.504Z,32.91
2023-07-10T08:38:26.939Z,33.10
2023-07-10T08:40:56.609Z,33.24
2023-07-10T08:43:29.057Z,33.35
2023-07-10T08:46:05.537Z,33.60
2023-07-10T08:48:37.767Z,34.17
2023-07-10T08:51:16.530Z,34.39
2023-07-10T08:53:47.779Z,34.33
2023-07-10T08:56:26.952Z,34.87
2023-07-10T08:59:00.852Z,35.25
2023-07-10T09:01:37.907Z,35.09
2023-07-10T09:04:07.795Z,35.16
2023-07-10T09:06:48.125Z,35.64
2023-07-10T09:09:37.976Z,36.39
2023-07-10T09:12:22.337Z,37.07
2023-07-10T09:14:55.369Z,37.56
2023-07-10T09:17:40.838Z,37.86
2023-07-10T09:20:11.347Z,38.10
2023-07-10T09:22:54.513Z,37.38
2023-07-10T09:25:22.879Z,37.33
2023-07-10T09:27:49.740Z,37.99
2023-07-10T09:30:38.255Z,38.00
2023-07-10T09:33:07.552Z,37.35
2023-07-10T09:35:36.804Z,37.78
2023-07-10T09:38:04.123Z,38.18
2023-07-10T09:40:49.466Z,39.06
2023-07-10T09:43:23.096Z,39.09
2023-07-10T09:45:52.847Z,38.16
2023-07-10T09:48:35.071Z,38.83
2023-07-10T09:51:07.585Z,39.74
2023-07-10T09:53:42.725Z,39.96
2023-07-10T09:56:09.462Z,40.38
2023-07-10T09:58:47.107Z,40.30
2023-07-10T10:01:14.607Z,41.24
2023-07-10T10:03:44.807Z,41.55
2023-07-10T10:06:21.441Z,41.88
2023-07-10T10:08:49.808Z,41.67
2023-07-10T10:11:17.531Z,41.13
2023-07-10T10:14:01.305Z,41.42
2023-07-10T10:16:37.566Z,40.65
2023-07-10T10:19:12.171Z,39.39
2023-07-10T10:21:41.392Z,39.88
2023-07-10T10:24:13.266Z,40.39
2023-07-10T10:26:55.932Z,41.51
2023-07-10T10:30:05.823Z,43.73
2023-07-10T10:32:41.583Z,44.73
2023-07-10T10:35:30.074Z,45.21
2023-07-10T10:38:11.667Z,45.36
2023-07-10T10:40:53.345Z,44.54
2023-07-10T10:43:35.412Z,43.85
2023-07-10T10:46:15.717Z,42.65
2023-07-10T10:48:57.827Z,43.89
2023-07-10T10:51:36.792Z,45.12
2023-07-10T10:54:28.163Z,44.92
2023-07-10T10:57:19.247Z,46.44
2023-07-10T10:59:54.789Z,45.59
2023-07-10T11:02:55.562Z,44.11
2023-07-10T11:05:40.547Z,44.06
2023-07-10T11:08:16.970Z,44.55
2023-07-10T11:10:45.766Z,43.55
2023-07-10T11:13:25.138Z,43.27
2023-07-10T11:15:52.561Z,44.40
2023-07-10T11:18:20.098Z,45.59
2023-07-10T11:20:47.422Z,46.69
2023-07-10T11:23:41.996Z,47.22
2023-07-10T11:26:08.606Z,48.06
2023-07-10T11:28:35.411Z,46.34
2023-07-10T11:31:20.783Z,46.47
2023-07-10T11:34:13.948Z,47.42
2023-07-10T11:36:44.001Z,48.28
2023-07-10T11:39:18.606Z,47.37
2023-07-10T11:41:45.289Z,48.05
2023-07-10T11:44:14.936Z,48.83
2023-07-10T11:47:03.741Z,49.00
2023-07-10T11:49:41.658Z,49.37
2023-07-10T11:52:14.409Z,49.73
2023-07-10T11:54:43.020Z,50.05
2023-07-10T11:57:09.671Z,49.75
2023-07-10T11:59:37.117Z,48.21
2023-07-10T12:02:17.817Z,47.36
2023-07-10T12:04:44.594Z,48.35
2023-07-10T12:07:12.650Z,47.76
2023-07-10T12:09:39.361Z,48.65
2023-07-10T12:12:11.599Z,48.48
2023-07-10T12:14:38.331Z,49.00
2023-07-10T12:17:38.729Z,49.69
2023-07-10T12:20:01.838Z,49.99
2023-07-10T12:22:36.173Z,50.23
2023-07-10T12:25:13.431Z,49.64
2023-07-10T12:30:39.488Z,47.98
2023-07-10T12:33:24.628Z,47.35
2023-07-10T12:35:51.292Z,46.36
2023-07-10T12:38:18.089Z,45.48
2023-07-10T12:40:46.015Z,45.33
2023-07-10T12:43:23.061Z,43.92
2023-07-10T12:46:01.524Z,43.59
2023-07-10T12:48:33.230Z,41.47
2023-07-10T12:51:02.620Z,41.01
2023-07-10T12:53:36.110Z,40.18
2023-07-10T12:56:10.417Z,40.00
2023-07-10T12:58:38.375Z,40.07
2023-07-10T13:01:17.457Z,39.67
2023-07-10T13:03:44.493Z,39.64
2023-07-10T13:06:17.218Z,39.50
2023-07-10T13:08:47.676Z,39.56
2023-07-10T13:11:35.749Z,39.56
2023-07-10T13:14:14.787Z,39.36
2023-07-10T13:16:45.863Z,38.90
2023-07-10T13:19:12.795Z,38.73
2023-07-10T13:21:39.480Z,38.37
2023-07-10T13:24:07.225Z,38.76
2023-07-10T13:26:33.933Z,38.91
2023-07-10T13:29:00.626Z,39.18
2023-07-10T13:31:32.366Z,39.14
2023-07-10T13:33:59.119Z,39.07
2023-07-10T13:36:28.103Z,39.06
2023-07-10T13:38:55.029Z,39.10
2023-07-10T13:41:24.171Z,38.98
2023-07-10T13:43:51.797Z,39.04
2023-07-10T13:46:33.902Z,38.95
2023-07-10T13:49:05.504Z,38.59
2023-07-10T13:51:34.098Z,38.85
2023-07-10T13:54:02.037Z,38.78
2023-07-10T13:56:47.212Z,38.75
2023-07-10T13:59:17.977Z,38.57
2023-07-10T14:01:45.899Z,38.41
2023-07-10T14:04:12.832Z,38.34
2023-07-10T14:06:44.008Z,38.13
2023-07-10T14:09:18.269Z,38.25
2023-07-10T14:11:45.410Z,38.28
2023-07-10T14:14:16.995Z,38.16
2023-07-10T14:16:44.178Z,38.36
2023-07-10T14:19:19.423Z,38.21
2023-07-10T14:21:47.124Z,37.99
2023-07-10T14:24:13.996Z,37.78
2023-07-10T14:26:40.940Z,37.36
2023-07-10T14:29:09.107Z,37.10
2023-07-10T14:31:35.858Z,36.81
2023-07-10T14:34:02.546Z,37.04
2023-07-10T14:36:29.383Z,37.23
2023-07-10T14:38:56.059Z,37.47
2023-07-10T14:41:24.976Z,37.52
2023-07-10T14:43:52.636Z,37.53
2023-07-10T14:46:31.850Z,37.67
2023-07-10T14:49:01.310Z,37.21
2023-07-10T14:51:27.969Z,37.29
2023-07-10T14:53:54.648Z,37.20
2023-07-10T14:56:21.349Z,36.94
2023-07-10T14:58:47.986Z,36.86
2023-07-10T15:01:17.709Z,36.99
2023-07-10T15:03:44.931Z,36.76
2023-07-10T15:06:29.489Z,36.92
2023-07-10T15:08:56.879Z,36.97
2023-07-10T15:11:25.629Z,37.06
2023-07-10T15:13:52.742Z,37.12
2023-07-10T15:16:24.884Z,37.04
2023-07-10T15:18:53.202Z,37.04
2023-07-10T15:21:22.977Z,37.04
2023-07-10T15:23:49.770Z,36.97
2023-07-10T15:26:16.689Z,36.77
2023-07-10T15:28:43.412Z,36.76
2023-07-10T15:31:13.605Z,36.79
2023-07-10T15:33:43.076Z,36.57
2023-07-10T15:36:19.010Z,36.48
2023-07-10T15:38:46.722Z,36.33
2023-07-10T15:41:25.321Z,36.38
2023-07-10T15:43:52.438Z,36.22
2023-07-10T15:46:19.230Z,36.28
2023-07-10T15:48:46.032Z,36.10
2023-07-10T15:51:23.940Z,36.11
2023-07-10T15:53:50.574Z,35.81
2023-07-10T15:56:17.293Z,35.84
2023-07-10T15:58:43.998Z,35.78
2023-07-10T16:01:14.453Z,35.82
2023-07-10T16:03:42.579Z,35.92
2023-07-10T16:06:09.261Z,35.82
2023-07-10T16:08:39.006Z,35.72
2023-07-10T16:11:17.828Z,35.64
2023-07-10T16:13:47.652Z,35.23
2023-07-10T16:16:14.816Z,35.11
2023-07-10T16:18:43.039Z,34.98
2023-07-10T16:21:21.703Z,34.97
2023-07-10T16:23:49.306Z,35.01
2023-07-10T16:26:17.134Z,35.02
2023-07-10T16:28:43.871Z,35.09
2023-07-10T16:31:16.018Z,35.05
2023-07-10T16:33:42.795Z,35.05
2023-07-10T16:36:15.058Z,35.07
2023-07-10T16:38:41.799Z,34.81
2023-07-10T16:41:14.810Z,34.95
2023-07-10T16:43:41.670Z,34.97
2023-07-10T16:46:09.792Z,34.86
2023-07-10T16:48:36.579Z,34.73
2023-07-10T16:51:03.627Z,34.53
2023-07-10T16:53:39.180Z,34.56
2023-07-10T16:56:08.033Z,34.49
2023-07-10T16:58:38.782Z,34.41
2023-07-10T17:01:26.136Z,34.15
2023-07-10T17:03:54.677Z,34.06
2023-07-10T17:06:25.659Z,33.98
2023-07-10T17:08:52.412Z,34.01
2023-07-10T17:11:28.595Z,33.96
2023-07-10T17:13:55.464Z,33.78
2023-07-10T17:16:22.284Z,33.78
2023-07-10T17:18:49.143Z,33.84
2023-07-10T17:21:16.465Z,33.82
2023-07-10T17:23:43.613Z,33.88
2023-07-10T17:26:16.949Z,33.68
2023-07-10T17:28:46.316Z,33.70
2023-07-10T17:31:21.652Z,33.51
2023-07-10T17:33:52.929Z,33.46
2023-07-10T17:36:20.465Z,33.38
2023-07-10T17:38:47.925Z,33.38
2023-07-10T17:41:18.169Z,33.34
2023-07-10T17:43:46.082Z,33.37
2023-07-10T17:46:13.361Z,33.33
2023-07-10T17:48:40.097Z,33.17
2023-07-10T17:51:31.577Z,33.16
2023-07-10T17:53:59.958Z,33.13
2023-07-10T17:56:27.384Z,33.09
2023-07-10T17:58:55.403Z,33.08
2023-07-10T18:01:25.852Z,33.00
2023-07-10T18:03:57.307Z,32.91
2023-07-10T18:06:25.123Z,32.90
2023-07-10T18:08:52.073Z,32.77
2023-07-10T18:11:22.774Z,32.64
2023-07-10T18:13:49.606Z,32.64
2023-07-10T18:16:17.575Z,32.60
2023-07-10T18:18:44.572Z,32.54
2023-07-10T18:21:14.295Z,32.45
2023-07-10T18:23:41.147Z,32.29
2023-07-10T18:26:09.973Z,32.30
2023-07-10T18:28:37.210Z,32.15
2023-07-10T18:31:06.407Z,32.13
2023-07-10T18:33:33.610Z,32.04
2023-07-10T18:36:02.022Z,31.98
2023-07-10T18:38:28.824Z,31.81
2023-07-10T18:40:57.529Z,31.76
2023-07-10T18:43:29.620Z,31.61
2023-07-10T18:45:56.416Z,31.54
2023-07-10T18:48:30.462Z,31.49
2023-07-10T18:51:02.221Z,31.33
2023-07-10T18:53:31.899Z,31.26
2023-07-10T18:55:58.999Z,31.08
2023-07-10T18:58:29.031Z,31.02
2023-07-10T19:00:56.815Z,31.02
2023-07-10T19:03:24.382Z,30.94
2023-07-10T19:05:53.770Z,30.89
2023-07-10T19:08:23.537Z,30.85
2023-07-10T19:10:52.015Z,30.78
2023-07-10T19:13:24.153Z,30.73
2023-07-10T19:15:54.213Z,30.61
2023-07-10T19:18:24.214Z,30.47
2023-07-10T19:20:51.055Z,30.35
2023-07-10T19:23:29.695Z,30.23
2023-07-10T19:25:56.952Z,30.10
2023-07-10T19:28:27.212Z,29.94
2023-07-10T19:30:57.553Z,29.87
2023-07-10T19:33:25.872Z,29.80
2023-07-10T19:35:52.755Z,29.75
2023-07-10T19:38:25.370Z,29.56
2023-07-10T19:40:54.691Z,29.55
2023-07-10T19:43:22.337Z,29.49
2023-07-10T19:45:52.178Z,29.48
2023-07-10T19:48:22.378Z,29.38
2023-07-10T19:50:50.235Z,29.32
2023-07-10T19:53:20.328Z,29.28
2023-07-10T19:55:51.316Z,29.24
2023-07-10T19:58:21.589Z,29.07
2023-07-10T20:00:48.366Z,29.00
2023-07-10T20:03:27.406Z,28.94
2023-07-10T20:05:54.434Z,28.77
2023-07-10T20:08:28.219Z,28.70
2023-07-10T20:10:55.455Z,28.67
2023-07-10T20:13:26.203Z,28.67
2023-07-10T20:16:02.006Z,28.63
2023-07-10T20:18:34.842Z,28.56
2023-07-10T20:21:02.976Z,28.53
2023-07-10T20:23:30.086Z,28.40
2023-07-10T20:26:00.060Z,28.28
2023-07-10T20:28:31.053Z,28.22
2023-07-10T20:30:57.745Z,28.14
2023-07-10T20:33:28.243Z,28.04
2023-07-10T20:35:55.745Z,27.88
2023-07-10T20:38:29.095Z,27.76
2023-07-10T20:40:56.281Z,27.76
2023-07-10T20:43:27.085Z,27.66
2023-07-10T20:45:58.787Z,27.72
2023-07-10T20:48:29.276Z,27.73
2023-07-10T20:50:57.648Z,27.65
2023-07-10T20:53:25.623Z,27.63
2023-07-10T20:56:17.419Z,27.62
2023-07-10T20:58:44.475Z,27.53
2023-07-10T21:01:18.260Z,27.46
2023-07-10T21:03:45.867Z,27.42
2023-07-10T21:06:16.979Z,27.35
2023-07-10T21:08:59.397Z,27.24
2023-07-10T21:11:29.272Z,27.12
2023-07-10T21:13:56.566Z,27.17
2023-07-10T21:16:27.221Z,27.06
2023-07-10T21:18:54.603Z,26.97
2023-07-10T21:21:21.974Z,26.99
2023-07-10T21:23:49.748Z,26.90
2023-07-10T21:26:20.960Z,26.86
2023-07-10T21:28:52.286Z,26.91
2023-07-10T21:31:25.768Z,26.94
2023-07-10T21:33:54.566Z,26.96
2023-07-10T21:36:22.559Z,26.89
2023-07-10T21:38:49.483Z,26.86
2023-07-10T21:41:18.878Z,26.86
2023-07-10T21:43:48.073Z,26.81
2023-07-10T21:46:31.117Z,26.73
2023-07-10T21:48:59.330Z,26.74
2023-07-10T21:51:28.113Z,26.76
2023-07-10T21:53:55.120Z,26.70
2023-07-10T21:56:27.930Z,26.76
2023-07-10T21:59:00.885Z,26.70
2023-07-10T22:01:32.310Z,26.63
2023-07-10T22:04:00.409Z,26.47
2023-07-10T22:06:29.199Z,26.35
2023-07-10T22:08:56.541Z,26.28
2023-07-10T22:11:28.520Z,26.11
2023-07-10T22:13:55.476Z,26.02
2023-07-10T22:16:25.682Z,25.93
2023-07-10T22:18:55.275Z,25.88
2023-07-10T22:21:24.917Z,25.78
2023-07-10T22:23:51.726Z,25.64
2023-07-10T22:26:19.117Z,25.54
2023-07-10T22:28:46.414Z,25.46
2023-07-10T22:31:28.193Z,25.40
2023-07-10T22:33:58.166Z,25.34
2023-07-10T22:36:25.221Z,25.28
2023-07-10T22:38:53.369Z,25.28
2023-07-10T22:41:33.037Z,25.34
2023-07-10T22:44:14.260Z,25.26
2023-07-10T22:46:43.248Z,25.14
2023-07-10T22:49:14.996Z,25.11
2023-07-10T22:51:42.670Z,25.18
2023-07-10T22:54:11.142Z,25.13
2023-07-10T22:56:45.292Z,25.14
2023-07-10T22:59:16.761Z,25.07
2023-07-10T23:01:48.530Z,25.03
2023-07-10T23:04:17.849Z,25.01
2023-07-10T23:06:44.623Z,25.07
2023-07-10T23:09:12.289Z,25.16
2023-07-10T23:11:39.110Z,25.13
2023-07-10T23:14:07.490Z,25.11
2023-07-10T23:16:34.550Z,25.11
2023-07-10T23:19:01.376Z,25.10
2023-07-10T23:21:29.321Z,25.09
2023-07-10T23:23:56.689Z,25.07
2023-07-10T23:26:25.883Z,25.00
2023-07-10T23:28:53.399Z,24.92
2023-07-10T23:31:23.427Z,24.84
2023-07-10T23:33:51.021Z,24.72
2023-07-10T23:36:18.729Z,24.71
2023-07-10T23:38:45.652Z,24.76
2023-07-10T23:41:12.767Z,24.75
2023-07-10T23:43:40.091Z,24.72
2023-07-10T23:46:07.900Z,24.79
2023-07-10T23:48:34.846Z,24.70
2023-07-10T23:51:01.803Z,24.63
2023-07-10T23:53:30.505Z,24.54
2023-07-10T23:55:57.306Z,24.51
2023-07-10T23:58:24.248Z,24.39
